Terminal Aerodrome Forecast
Issued by NWS Hastings, NE

Home | Current Version | Previous Version | Text Only | Print | Product List | Glossary On
Versions: 1 2 3 4 5 6 7 8 9 10 11 12 13 14
000
FTUS43 KGID 171732
TAFGRI
TAF
KGRI 171732Z 1718/1818 VRB03KT P6SM SCT250
     FM172000 18005KT P6SM SCT200
     FM180600 21007KT P6SM SKC
     FM181300 23010KT P6SM SCT250
     FM181700 32012KT P6SM SCT250=

USA.gov is the U.S. government's official web portal to all federal, state and local government web resources and services.